Strona główna
METAR-TAF:

METAR-TAF

Lotnisko :

Port lotniczy Honiara

Honiara, Guadalcanal, Wyspy Salomona

Szerokość geograficzna: 09-25S, Długość geograficzna: 160-03E, wysokość: 8 m

Aktualna obserwacja pogody

Raport powstał 1 godzina i 0 minut temu, godzina 13:00 UTC
Wiatr 4 kt od południowo-południowy zachód
Temperatura 25°C
Wilgotność 94%
Ciśnienie 1010 hPa
Widzialność 10 km lub więcej
Mało chmury na wysokości 1500 ft
Rozproszone chmury na wysokości 10000 ft
Przerywane chmury na wysokości 30000 ft
zmętnienie

METAR: AGGH 201300Z 20004KT 9999 HZ FEW015 SCT100 BKN300 25/24 Q1010

czas: 01:00 (14:00 UTC)

Prognoza

Raport powstał 3 godziny i 30 minut temu, godzina 10:30 UTC
Prognoza ważna od 20 godzina 12 UTC do 21 godzina 12 UTC
Wiatr kt od północ
Widzialność 10 km lub więcej
Mało chmury na wysokości 1700 ft
Od 20 godzina 2300 UTC
Wiatr 10 kt od północny wschód
Widzialność: 1009 m
Mało chmury na wysokości 1900 ft

TAF: AGGH 201030Z 2012/2112 00000KT 9999 FEW017 FM202300 05010KT 9999 FEW019 T 27 26 24 27 Q 1009 1007 1007 1009

Obserwacja i prognoza pogody dla ponad 4000 lotnisk (raport METAR i TAF).

Dostępne stacje oznaczono żółtymi i czerwonymi punktami na mapie.

Najedź kursorem aby zobaczyć nazwę stacji.

Kliknij aby zobaczyć obserwacje i prognozy pogody.

Aby zmienić mapę: kliknij na zielony przycisk z czarnym krzyżykiem, aby powiększyć; na zielony przycisk z myślnikiem, aby pomniejszyć; na zielone strzałki, aby przejść do map sąsiednich.


METAR-TAF: